sensor_id;sensor_type;location;lat;lon;timestamp;pressure;altitude;pressure_sealevel;temperature;humidity
58471;BME280;44258;51.288;12.068;2024-02-23T00:01:50;97562.75;;;13.62;60.21
58471;BME280;44258;51.288;12.068;2024-02-23T00:04:22;97578.13;;;13.53;60.19
58471;BME280;44258;51.288;12.068;2024-02-23T00:07:00;97551.69;;;13.40;60.45
58471;BME280;44258;51.288;12.068;2024-02-23T00:09:28;97539.56;;;13.36;60.47
58471;BME280;44258;51.288;12.068;2024-02-23T00:12:01;97554.25;;;13.25;60.35
58471;BME280;44258;51.288;12.068;2024-02-23T00:14:29;97577.19;;;13.29;59.56
58471;BME280;44258;51.288;12.068;2024-02-23T00:17:02;97598.25;;;13.09;59.66
58471;BME280;44258;51.288;12.068;2024-02-23T00:19:31;97611.09;;;13.32;58.69
58471;BME280;44258;51.288;12.068;2024-02-23T00:22:16;97607.19;;;13.26;58.51
58471;BME280;44258;51.288;12.068;2024-02-23T00:24:43;97616.63;;;13.39;58.46
58471;BME280;44258;51.288;12.068;2024-02-23T00:27:25;97618.16;;;13.33;58.43
58471;BME280;44258;51.288;12.068;2024-02-23T00:29:51;97629.97;;;13.40;58.07
58471;BME280;44258;51.288;12.068;2024-02-23T00:32:21;97642.44;;;13.33;58.43
58471;BME280;44258;51.288;12.068;2024-02-23T00:34:47;97652.22;;;13.34;59.02
58471;BME280;44258;51.288;12.068;2024-02-23T00:37:17;97650.88;;;13.38;58.89
58471;BME280;44258;51.288;12.068;2024-02-23T00:39:46;97656.09;;;13.48;58.82
58471;BME280;44258;51.288;12.068;2024-02-23T00:42:16;97658.97;;;13.22;59.23
58471;BME280;44258;51.288;12.068;2024-02-23T00:44:45;97675.47;;;13.19;59.71
58471;BME280;44258;51.288;12.068;2024-02-23T00:47:16;97684.63;;;13.34;59.40
58471;BME280;44258;51.288;12.068;2024-02-23T00:49:45;97682.09;;;13.32;59.17
58471;BME280;44258;51.288;12.068;2024-02-23T00:52:17;97687.31;;;13.34;59.34
58471;BME280;44258;51.288;12.068;2024-02-23T00:54:47;97689.66;;;13.45;59.21
58471;BME280;44258;51.288;12.068;2024-02-23T00:57:18;97674.50;;;13.28;59.41
58471;BME280;44258;51.288;12.068;2024-02-23T01:00:09;97673.59;;;13.11;59.38
58471;BME280;44258;51.288;12.068;2024-02-23T01:02:37;97712.56;;;13.17;59.22
58471;BME280;44258;51.288;12.068;2024-02-23T01:05:05;97705.81;;;13.12;59.47
58471;BME280;44258;51.288;12.068;2024-02-23T01:07:36;97718.97;;;13.07;59.11
58471;BME280;44258;51.288;12.068;2024-02-23T01:10:02;97735.31;;;13.06;58.70
58471;BME280;44258;51.288;12.068;2024-02-23T01:12:46;97758.00;;;12.70;58.48
58471;BME280;44258;51.288;12.068;2024-02-23T01:15:14;97775.84;;;12.71;58.99
58471;BME280;44258;51.288;12.068;2024-02-23T01:17:41;97782.97;;;12.81;58.93
58471;BME280;44258;51.288;12.068;2024-02-23T01:20:10;97808.06;;;12.73;58.61
58471;BME280;44258;51.288;12.068;2024-02-23T01:22:40;97813.78;;;12.78;58.63
58471;BME280;44258;51.288;12.068;2024-02-23T01:25:07;97809.75;;;12.82;57.86
58471;BME280;44258;51.288;12.068;2024-02-23T01:27:36;97803.13;;;12.60;57.95
58471;BME280;44258;51.288;12.068;2024-02-23T01:30:26;97800.44;;;12.60;58.24
58471;BME280;44258;51.288;12.068;2024-02-23T01:33:10;97827.72;;;12.65;58.19
58471;BME280;44258;51.288;12.068;2024-02-23T01:35:42;97848.13;;;12.42;59.17
58471;BME280;44258;51.288;12.068;2024-02-23T01:38:09;97865.13;;;12.60;58.72
58471;BME280;44258;51.288;12.068;2024-02-23T01:40:36;97868.19;;;12.39;59.38
58471;BME280;44258;51.288;12.068;2024-02-23T01:43:03;97855.97;;;12.27;58.88
58471;BME280;44258;51.288;12.068;2024-02-23T01:45:30;97857.81;;;12.26;58.22
58471;BME280;44258;51.288;12.068;2024-02-23T01:47:58;97851.31;;;12.11;57.72
58471;BME280;44258;51.288;12.068;2024-02-23T01:50:32;97846.78;;;12.11;56.09
58471;BME280;44258;51.288;12.068;2024-02-23T01:53:04;97865.84;;;11.82;54.33
58471;BME280;44258;51.288;12.068;2024-02-23T01:55:31;97871.94;;;11.66;53.62
58471;BME280;44258;51.288;12.068;2024-02-23T01:58:03;97873.16;;;11.72;54.06
58471;BME280;44258;51.288;12.068;2024-02-23T02:00:34;97868.94;;;11.87;53.42
58471;BME280;44258;51.288;12.068;2024-02-23T02:03:04;97872.47;;;11.52;53.65
58471;BME280;44258;51.288;12.068;2024-02-23T02:05:31;97884.19;;;11.61;52.69
58471;BME280;44258;51.288;12.068;2024-02-23T02:07:58;97898.00;;;11.48;51.90
58471;BME280;44258;51.288;12.068;2024-02-23T02:10:25;97893.75;;;11.45;52.04
58471;BME280;44258;51.288;12.068;2024-02-23T02:12:51;97918.16;;;11.62;51.97
58471;BME280;44258;51.288;12.068;2024-02-23T02:15:18;97914.41;;;11.54;52.63
58471;BME280;44258;51.288;12.068;2024-02-23T02:17:47;97922.16;;;11.58;53.66
58471;BME280;44258;51.288;12.068;2024-02-23T02:20:18;97926.47;;;11.23;54.45
58471;BME280;44258;51.288;12.068;2024-02-23T02:22:49;97936.06;;;11.25;55.21
58471;BME280;44258;51.288;12.068;2024-02-23T02:25:15;97943.41;;;11.33;55.13
58471;BME280;44258;51.288;12.068;2024-02-23T02:27:42;97950.63;;;11.32;55.54
58471;BME280;44258;51.288;12.068;2024-02-23T02:30:11;97955.97;;;11.42;55.56
58471;BME280;44258;51.288;12.068;2024-02-23T02:32:38;97959.66;;;11.41;55.48
58471;BME280;44258;51.288;12.068;2024-02-23T02:35:10;97953.28;;;11.42;55.54
58471;BME280;44258;51.288;12.068;2024-02-23T02:37:42;97968.72;;;11.12;56.15
58471;BME280;44258;51.288;12.068;2024-02-23T02:40:09;97965.09;;;10.94;56.42
58471;BME280;44258;51.288;12.068;2024-02-23T02:42:36;97972.56;;;11.00;56.74
58471;BME280;44258;51.288;12.068;2024-02-23T02:45:03;97973.25;;;11.12;56.20
58471;BME280;44258;51.288;12.068;2024-02-23T02:47:33;97980.91;;;10.97;55.93
58471;BME280;44258;51.288;12.068;2024-02-23T02:50:01;97986.03;;;10.90;55.59
58471;BME280;44258;51.288;12.068;2024-02-23T02:52:30;97984.50;;;10.88;54.35
58471;BME280;44258;51.288;12.068;2024-02-23T02:55:01;98016.75;;;10.78;53.56
58471;BME280;44258;51.288;12.068;2024-02-23T02:57:28;98007.41;;;10.72;53.56
58471;BME280;44258;51.288;12.068;2024-02-23T02:59:55;98029.66;;;10.84;53.44
58471;BME280;44258;51.288;12.068;2024-02-23T03:02:25;98016.88;;;10.77;53.82
58471;BME280;44258;51.288;12.068;2024-02-23T03:04:55;98030.91;;;10.90;54.11
58471;BME280;44258;51.288;12.068;2024-02-23T03:07:21;98045.63;;;10.96;55.32
58471;BME280;44258;51.288;12.068;2024-02-23T03:09:51;98047.91;;;10.71;56.62
58471;BME280;44258;51.288;12.068;2024-02-23T03:12:21;98051.00;;;10.57;56.59
58471;BME280;44258;51.288;12.068;2024-02-23T03:14:48;98061.28;;;10.03;58.09
58471;BME280;44258;51.288;12.068;2024-02-23T03:17:18;98070.19;;;10.03;58.50
58471;BME280;44258;51.288;12.068;2024-02-23T03:19:48;98068.94;;;9.98;57.60
58471;BME280;44258;51.288;12.068;2024-02-23T03:22:16;98080.91;;;9.84;57.44
58471;BME280;44258;51.288;12.068;2024-02-23T03:24:46;98098.81;;;9.73;57.70
58471;BME280;44258;51.288;12.068;2024-02-23T03:27:16;98113.69;;;9.97;56.95
58471;BME280;44258;51.288;12.068;2024-02-23T03:29:44;98106.31;;;9.89;56.57
58471;BME280;44258;51.288;12.068;2024-02-23T03:32:14;98114.91;;;9.73;56.74
58471;BME280;44258;51.288;12.068;2024-02-23T03:34:41;98113.25;;;9.82;56.43
58471;BME280;44258;51.288;12.068;2024-02-23T03:37:15;98119.50;;;9.92;55.99
58471;BME280;44258;51.288;12.068;2024-02-23T03:39:45;98109.72;;;9.82;55.62
58471;BME280;44258;51.288;12.068;2024-02-23T03:42:13;98124.09;;;9.81;55.29
58471;BME280;44258;51.288;12.068;2024-02-23T03:44:40;98119.66;;;9.60;56.08
58471;BME280;44258;51.288;12.068;2024-02-23T03:47:18;98129.94;;;9.86;55.32
58471;BME280;44258;51.288;12.068;2024-02-23T03:49:44;98124.09;;;9.81;55.31
58471;BME280;44258;51.288;12.068;2024-02-23T03:52:17;98132.50;;;9.97;55.17
58471;BME280;44258;51.288;12.068;2024-02-23T03:54:43;98140.72;;;10.05;54.95
58471;BME280;44258;51.288;12.068;2024-02-23T03:57:11;98148.59;;;9.97;55.24
58471;BME280;44258;51.288;12.068;2024-02-23T03:59:37;98148.03;;;9.93;55.07
58471;BME280;44258;51.288;12.068;2024-02-23T04:02:12;98161.47;;;10.03;54.87
58471;BME280;44258;51.288;12.068;2024-02-23T04:04:38;98176.22;;;10.09;54.83
58471;BME280;44258;51.288;12.068;2024-02-23T04:07:05;98182.47;;;10.19;54.51
58471;BME280;44258;51.288;12.068;2024-02-23T04:09:32;98185.59;;;10.24;54.59
58471;BME280;44258;51.288;12.068;2024-02-23T04:11:58;98202.09;;;10.20;54.65
58471;BME280;44258;51.288;12.068;2024-02-23T04:15:18;98200.03;;;9.92;54.96
58471;BME280;44258;51.288;12.068;2024-02-23T04:17:49;98209.09;;;10.01;54.78
58471;BME280;44258;51.288;12.068;2024-02-23T04:20:16;98206.78;;;9.87;54.94
58471;BME280;44258;51.288;12.068;2024-02-23T04:22:42;98210.94;;;10.01;54.74
58471;BME280;44258;51.288;12.068;2024-02-23T04:25:09;98198.22;;;10.03;54.32
58471;BME280;44258;51.288;12.068;2024-02-23T04:27:35;98201.47;;;9.97;53.76
58471;BME280;44258;51.288;12.068;2024-02-23T04:30:09;98225.69;;;9.85;54.53
58471;BME280;44258;51.288;12.068;2024-02-23T04:32:39;98223.19;;;9.93;53.70
58471;BME280;44258;51.288;12.068;2024-02-23T04:35:08;98221.00;;;10.08;53.52
58471;BME280;44258;51.288;12.068;2024-02-23T04:37:35;98211.03;;;10.20;53.33
58471;BME280;44258;51.288;12.068;2024-02-23T04:40:03;98227.16;;;10.20;53.02
58471;BME280;44258;51.288;12.068;2024-02-23T04:42:34;98231.50;;;10.21;53.12
58471;BME280;44258;51.288;12.068;2024-02-23T04:45:01;98249.66;;;10.29;52.50
58471;BME280;44258;51.288;12.068;2024-02-23T04:47:27;98259.91;;;10.14;52.87
58471;BME280;44258;51.288;12.068;2024-02-23T04:49:54;98259.91;;;10.14;53.08
58471;BME280;44258;51.288;12.068;2024-02-23T04:52:22;98282.06;;;10.06;53.16
58471;BME280;44258;51.288;12.068;2024-02-23T04:54:49;98286.19;;;10.10;52.86
58471;BME280;44258;51.288;12.068;2024-02-23T04:57:22;98286.25;;;9.99;53.20
58471;BME280;44258;51.288;12.068;2024-02-23T04:59:49;98289.53;;;10.03;53.04
58471;BME280;44258;51.288;12.068;2024-02-23T05:02:15;98297.72;;;9.80;53.15
58471;BME280;44258;51.288;12.068;2024-02-23T05:04:42;98309.50;;;9.68;53.56
58471;BME280;44258;51.288;12.068;2024-02-23T05:07:09;98318.38;;;9.15;54.50
58471;BME280;44258;51.288;12.068;2024-02-23T05:09:37;98300.34;;;9.49;53.95
58471;BME280;44258;51.288;12.068;2024-02-23T05:12:06;98293.97;;;9.18;54.67
58471;BME280;44258;51.288;12.068;2024-02-23T05:14:33;98307.34;;;9.29;54.40
58471;BME280;44258;51.288;12.068;2024-02-23T05:17:00;98310.63;;;9.33;54.43
58471;BME280;44258;51.288;12.068;2024-02-23T05:19:32;98323.66;;;9.26;54.50
58471;BME280;44258;51.288;12.068;2024-02-23T05:21:59;98326.34;;;9.26;54.68
58471;BME280;44258;51.288;12.068;2024-02-23T05:24:26;98326.44;;;9.36;54.35
58471;BME280;44258;51.288;12.068;2024-02-23T05:26:54;98334.91;;;9.20;55.45
58471;BME280;44258;51.288;12.068;2024-02-23T05:29:23;98338.75;;;8.95;56.31
58471;BME280;44258;51.288;12.068;2024-02-23T05:31:53;98356.41;;;8.98;57.04
58471;BME280;44258;51.288;12.068;2024-02-23T05:34:21;98369.91;;;9.19;56.98
58471;BME280;44258;51.288;12.068;2024-02-23T05:36:48;98375.91;;;9.11;57.89
58471;BME280;44258;51.288;12.068;2024-02-23T05:39:17;98386.47;;;9.24;57.59
58471;BME280;44258;51.288;12.068;2024-02-23T05:41:43;98392.41;;;9.50;56.80
58471;BME280;44258;51.288;12.068;2024-02-23T05:44:12;98403.94;;;9.62;56.38
58471;BME280;44258;51.288;12.068;2024-02-23T05:46:40;98379.63;;;9.74;56.04
58471;BME280;44258;51.288;12.068;2024-02-23T05:49:06;98380.88;;;9.91;55.71
58471;BME280;44258;51.288;12.068;2024-02-23T05:51:33;98381.28;;;10.08;55.44
58471;BME280;44258;51.288;12.068;2024-02-23T05:54:02;98379.91;;;10.13;55.25
58471;BME280;44258;51.288;12.068;2024-02-23T05:56:31;98386.19;;;10.24;55.13
58471;BME280;44258;51.288;12.068;2024-02-23T05:58:58;98389.19;;;10.09;55.05
58471;BME280;44258;51.288;12.068;2024-02-23T06:01:26;98398.69;;;9.92;55.21
58471;BME280;44258;51.288;12.068;2024-02-23T06:03:53;98407.44;;;10.06;55.34
58471;BME280;44258;51.288;12.068;2024-02-23T06:06:20;98382.13;;;10.08;55.07
58471;BME280;44258;51.288;12.068;2024-02-23T06:08:47;98405.31;;;9.88;55.37
58471;BME280;44258;51.288;12.068;2024-02-23T06:11:15;98425.06;;;9.87;55.51
58471;BME280;44258;51.288;12.068;2024-02-23T06:13:42;98436.75;;;9.98;55.46
58471;BME280;44258;51.288;12.068;2024-02-23T06:16:10;98420.84;;;10.06;55.18
58471;BME280;44258;51.288;12.068;2024-02-23T06:18:38;98414.34;;;10.08;55.09
58471;BME280;44258;51.288;12.068;2024-02-23T06:21:16;98418.88;;;10.08;54.77
58471;BME280;44258;51.288;12.068;2024-02-23T06:23:44;98422.09;;;10.02;54.98
58471;BME280;44258;51.288;12.068;2024-02-23T06:26:11;98438.06;;;10.03;55.01
58471;BME280;44258;51.288;12.068;2024-02-23T06:28:38;98452.56;;;10.12;54.67
58471;BME280;44258;51.288;12.068;2024-02-23T06:31:07;98454.13;;;10.14;54.61
58471;BME280;44258;51.288;12.068;2024-02-23T06:33:33;98443.09;;;9.97;54.77
58471;BME280;44258;51.288;12.068;2024-02-23T06:36:01;98438.78;;;9.73;54.99
58471;BME280;44258;51.288;12.068;2024-02-23T06:38:28;98438.31;;;9.68;55.27
58471;BME280;44258;51.288;12.068;2024-02-23T06:40:55;98448.78;;;9.82;55.05
58471;BME280;44258;51.288;12.068;2024-02-23T06:43:22;98443.09;;;9.97;54.59
58471;BME280;44258;51.288;12.068;2024-02-23T06:45:49;98446.72;;;10.07;54.21
58471;BME280;44258;51.288;12.068;2024-02-23T06:48:16;98451.34;;;10.05;53.89
58471;BME280;44258;51.288;12.068;2024-02-23T06:50:45;98459.81;;;10.00;54.04
58471;BME280;44258;51.288;12.068;2024-02-23T06:53:21;98460.66;;;10.01;54.20
58471;BME280;44258;51.288;12.068;2024-02-23T06:55:47;98463.34;;;10.01;53.76
58471;BME280;44258;51.288;12.068;2024-02-23T06:58:23;98465.00;;;9.81;53.81
58471;BME280;44258;51.288;12.068;2024-02-23T07:00:49;98450.06;;;9.56;54.42
58471;BME280;44258;51.288;12.068;2024-02-23T07:03:23;98446.56;;;9.44;54.56
58471;BME280;44258;51.288;12.068;2024-02-23T07:05:50;98458.63;;;9.49;54.86
58471;BME280;44258;51.288;12.068;2024-02-23T07:08:21;98465.91;;;9.59;54.43
58471;BME280;44258;51.288;12.068;2024-02-23T07:10:48;98462.44;;;9.47;54.22
58471;BME280;44258;51.288;12.068;2024-02-23T07:13:15;98479.97;;;9.40;54.03
58471;BME280;44258;51.288;12.068;2024-02-23T07:15:42;98483.97;;;9.34;53.89
58471;BME280;44258;51.288;12.068;2024-02-23T07:18:09;98465.22;;;9.23;53.97
58471;BME280;44258;51.288;12.068;2024-02-23T07:20:39;98471.06;;;9.28;53.40
58471;BME280;44258;51.288;12.068;2024-02-23T07:23:06;98487.41;;;9.25;53.25
58471;BME280;44258;51.288;12.068;2024-02-23T07:25:37;98493.84;;;9.22;52.99
58471;BME280;44258;51.288;12.068;2024-02-23T07:28:04;98489.00;;;9.05;52.75
58471;BME280;44258;51.288;12.068;2024-02-23T07:30:31;98501.91;;;9.11;52.97
58471;BME280;44258;51.288;12.068;2024-02-23T07:32:57;98516.16;;;9.34;52.56
58471;BME280;44258;51.288;12.068;2024-02-23T07:35:27;98529.00;;;9.42;52.20
58471;BME280;44258;51.288;12.068;2024-02-23T07:37:55;98535.22;;;9.42;52.41
58471;BME280;44258;51.288;12.068;2024-02-23T07:40:21;98536.31;;;9.51;51.74
58471;BME280;44258;51.288;12.068;2024-02-23T07:42:52;98553.00;;;9.54;51.21
58471;BME280;44258;51.288;12.068;2024-02-23T07:45:21;98557.16;;;9.47;51.61
58471;BME280;44258;51.288;12.068;2024-02-23T07:47:48;98557.63;;;9.52;51.17
58471;BME280;44258;51.288;12.068;2024-02-23T07:50:18;98542.00;;;9.24;51.20
58471;BME280;44258;51.288;12.068;2024-02-23T07:52:44;98539.94;;;9.05;50.90
58471;BME280;44258;51.288;12.068;2024-02-23T07:55:10;98539.91;;;8.93;51.54
58471;BME280;44258;51.288;12.068;2024-02-23T07:57:38;98545.28;;;9.16;51.01
58471;BME280;44258;51.288;12.068;2024-02-23T08:00:08;98548.13;;;9.14;50.76
58471;BME280;44258;51.288;12.068;2024-02-23T08:02:35;98549.09;;;9.25;50.58
58471;BME280;44258;51.288;12.068;2024-02-23T08:05:02;98553.03;;;9.43;50.12
58471;BME280;44258;51.288;12.068;2024-02-23T08:07:30;98556.09;;;9.39;50.30
58471;BME280;44258;51.288;12.068;2024-02-23T08:09:56;98560.47;;;9.51;49.78
58471;BME280;44258;51.288;12.068;2024-02-23T08:12:23;98566.91;;;9.48;50.26
58471;BME280;44258;51.288;12.068;2024-02-23T08:14:50;98578.00;;;9.66;49.39
58471;BME280;44258;51.288;12.068;2024-02-23T08:17:20;98571.91;;;9.76;49.21
58471;BME280;44258;51.288;12.068;2024-02-23T08:19:51;98571.81;;;9.43;49.64
58471;BME280;44258;51.288;12.068;2024-02-23T08:22:17;98578.50;;;9.71;49.36
58471;BME280;44258;51.288;12.068;2024-02-23T08:24:44;98576.53;;;9.73;48.92
58471;BME280;44258;51.288;12.068;2024-02-23T08:27:14;98574.66;;;9.97;48.66
58471;BME280;44258;51.288;12.068;2024-02-23T08:29:40;98567.88;;;10.13;48.23
58471;BME280;44258;51.288;12.068;2024-02-23T08:32:08;98578.91;;;10.10;48.50
58471;BME280;44258;51.288;12.068;2024-02-23T08:34:36;98586.34;;;10.07;48.27
58471;BME280;44258;51.288;12.068;2024-02-23T08:37:03;98597.66;;;10.22;47.96
58471;BME280;44258;51.288;12.068;2024-02-23T08:39:31;98586.63;;;10.36;47.95
58471;BME280;44258;51.288;12.068;2024-02-23T08:41:59;98589.41;;;10.46;47.66
58471;BME280;44258;51.288;12.068;2024-02-23T08:44:26;98595.97;;;10.53;47.55
58471;BME280;44258;51.288;12.068;2024-02-23T08:46:55;98588.88;;;10.52;47.13
58471;BME280;44258;51.288;12.068;2024-02-23T08:49:27;98592.28;;;10.54;47.17
58471;BME280;44258;51.288;12.068;2024-02-23T08:51:58;98584.63;;;10.70;47.12
58471;BME280;44258;51.288;12.068;2024-02-23T08:54:24;98593.84;;;10.57;46.68
58471;BME280;44258;51.288;12.068;2024-02-23T08:56:59;98603.13;;;10.64;46.35
58471;BME280;44258;51.288;12.068;2024-02-23T08:59:32;98598.06;;;10.49;46.57
58471;BME280;44258;51.288;12.068;2024-02-23T09:02:04;98605.59;;;10.55;46.75
58471;BME280;44258;51.288;12.068;2024-02-23T09:04:32;98616.44;;;10.65;46.85
58471;BME280;44258;51.288;12.068;2024-02-23T09:06:59;98619.25;;;10.64;46.35
58471;BME280;44258;51.288;12.068;2024-02-23T09:09:26;98623.38;;;10.79;46.90
58471;BME280;44258;51.288;12.068;2024-02-23T09:12:03;98607.19;;;10.90;46.93
58471;BME280;44258;51.288;12.068;2024-02-23T09:14:33;98600.81;;;11.12;46.83
58471;BME280;44258;51.288;12.068;2024-02-23T09:17:17;98604.50;;;10.90;47.03
58471;BME280;44258;51.288;12.068;2024-02-23T09:19:46;98601.47;;;10.84;47.60
58471;BME280;44258;51.288;12.068;2024-02-23T09:22:14;98609.19;;;10.77;47.54
58471;BME280;44258;51.288;12.068;2024-02-23T09:24:41;98627.53;;;10.83;46.73
58471;BME280;44258;51.288;12.068;2024-02-23T09:27:08;98624.97;;;10.70;47.19
58471;BME280;44258;51.288;12.068;2024-02-23T09:29:34;98620.88;;;10.55;47.78
58471;BME280;44258;51.288;12.068;2024-02-23T09:32:01;98613.19;;;10.50;48.65
58471;BME280;44258;51.288;12.068;2024-02-23T09:34:27;98610.72;;;10.91;47.55
58471;BME280;44258;51.288;12.068;2024-02-23T09:37:00;98614.34;;;10.69;46.78
58471;BME280;44258;51.288;12.068;2024-02-23T09:39:28;98612.66;;;10.57;46.07
58471;BME280;44258;51.288;12.068;2024-02-23T09:42:07;98611.81;;;10.56;45.03
58471;BME280;44258;51.288;12.068;2024-02-23T09:44:41;98614.94;;;10.72;45.62
58471;BME280;44258;51.288;12.068;2024-02-23T09:47:13;98624.22;;;10.80;45.74
58471;BME280;44258;51.288;12.068;2024-02-23T09:49:40;98630.78;;;10.87;44.92
58471;BME280;44258;51.288;12.068;2024-02-23T09:52:08;98635.59;;;11.04;45.06
58471;BME280;44258;51.288;12.068;2024-02-23T09:54:43;98630.84;;;11.18;44.86
58471;BME280;44258;51.288;12.068;2024-02-23T09:57:13;98633.53;;;11.18;45.46
58471;BME280;44258;51.288;12.068;2024-02-23T09:59:41;98640.63;;;11.40;45.21
58471;BME280;44258;51.288;12.068;2024-02-23T10:02:09;98647.38;;;11.55;44.44
58471;BME280;44258;51.288;12.068;2024-02-23T10:04:51;98644.28;;;11.18;45.54
58471;BME280;44258;51.288;12.068;2024-02-23T10:07:20;98640.31;;;11.33;45.06
58471;BME280;44258;51.288;12.068;2024-02-23T10:09:52;98633.72;;;11.26;45.07
58471;BME280;44258;51.288;12.068;2024-02-23T10:12:23;98628.03;;;11.40;44.30
58471;BME280;44258;51.288;12.068;2024-02-23T10:14:50;98628.06;;;11.50;44.33
58471;BME280;44258;51.288;12.068;2024-02-23T10:17:17;98636.06;;;11.61;44.02
58471;BME280;44258;51.288;12.068;2024-02-23T10:19:47;98622.00;;;11.58;44.41
58471;BME280;44258;51.288;12.068;2024-02-23T10:22:14;98635.41;;;11.69;44.47
58471;BME280;44258;51.288;12.068;2024-02-23T10:24:42;98633.97;;;11.74;44.45
58471;BME280;44258;51.288;12.068;2024-02-23T10:27:14;98632.97;;;11.66;44.23
58471;BME280;44258;51.288;12.068;2024-02-23T10:29:44;98637.13;;;11.80;44.25
58471;BME280;44258;51.288;12.068;2024-02-23T10:32:15;98632.88;;;11.87;43.78
58471;BME280;44258;51.288;12.068;2024-02-23T10:34:47;98642.59;;;11.68;43.53
58471;BME280;44258;51.288;12.068;2024-02-23T10:37:14;98650.25;;;11.63;43.25
58471;BME280;44258;51.288;12.068;2024-02-23T10:39:41;98656.69;;;11.82;43.86
58471;BME280;44258;51.288;12.068;2024-02-23T10:42:11;98660.53;;;11.89;43.69
58471;BME280;44258;51.288;12.068;2024-02-23T10:44:49;98663.44;;;11.97;44.19
58471;BME280;44258;51.288;12.068;2024-02-23T10:47:17;98669.00;;;12.05;43.29
58471;BME280;44258;51.288;12.068;2024-02-23T10:49:46;98671.34;;;11.99;43.21
58471;BME280;44258;51.288;12.068;2024-02-23T10:52:17;98663.34;;;11.78;44.32
58471;BME280;44258;51.288;12.068;2024-02-23T10:55:00;98681.16;;;11.69;44.17
58471;BME280;44258;51.288;12.068;2024-02-23T10:57:30;98673.44;;;11.85;43.56
58471;BME280;44258;51.288;12.068;2024-02-23T10:59:58;98674.72;;;11.91;43.22
58471;BME280;44258;51.288;12.068;2024-02-23T11:02:28;98688.41;;;11.99;43.31
58471;BME280;44258;51.288;12.068;2024-02-23T11:04:57;98683.81;;;11.90;43.14
58471;BME280;44258;51.288;12.068;2024-02-23T11:07:25;98695.47;;;12.00;43.31
58471;BME280;44258;51.288;12.068;2024-02-23T11:09:58;98697.75;;;11.95;43.04
58471;BME280;44258;51.288;12.068;2024-02-23T11:12:26;98692.53;;;12.03;43.01
58471;BME280;44258;51.288;12.068;2024-02-23T11:14:58;98703.63;;;12.10;43.40
58471;BME280;44258;51.288;12.068;2024-02-23T11:17:26;98694.84;;;12.08;43.33
58471;BME280;44258;51.288;12.068;2024-02-23T11:19:54;98693.38;;;11.52;44.68
58471;BME280;44258;51.288;12.068;2024-02-23T11:22:30;98697.84;;;11.63;44.51
58471;BME280;44258;51.288;12.068;2024-02-23T11:25:10;98694.75;;;11.67;44.06
58471;BME280;44258;51.288;12.068;2024-02-23T11:27:40;98696.47;;;11.47;44.08
58471;BME280;44258;51.288;12.068;2024-02-23T11:30:20;98700.47;;;11.53;44.44
58471;BME280;44258;51.288;12.068;2024-02-23T11:32:48;98703.94;;;11.44;45.11
58471;BME280;44258;51.288;12.068;2024-02-23T11:35:20;98706.00;;;11.30;45.16
58471;BME280;44258;51.288;12.068;2024-02-23T11:37:52;98692.56;;;11.30;45.75
58471;BME280;44258;51.288;12.068;2024-02-23T11:40:22;98685.84;;;11.46;45.51
58471;BME280;44258;51.288;12.068;2024-02-23T11:42:50;98688.00;;;11.83;44.63
58471;BME280;44258;51.288;12.068;2024-02-23T11:45:18;98690.75;;;11.92;44.27
58471;BME280;44258;51.288;12.068;2024-02-23T11:47:45;98673.66;;;11.72;43.51
58471;BME280;44258;51.288;12.068;2024-02-23T11:50:19;98688.00;;;11.52;43.81
58471;BME280;44258;51.288;12.068;2024-02-23T11:52:52;98686.00;;;11.44;44.23
58471;BME280;44258;51.288;12.068;2024-02-23T11:55:19;98688.53;;;11.67;43.33
58471;BME280;44258;51.288;12.068;2024-02-23T11:57:51;98688.47;;;11.57;43.29
58471;BME280;44258;51.288;12.068;2024-02-23T12:00:19;98692.53;;;11.09;44.15
58471;BME280;44258;51.288;12.068;2024-02-23T12:02:46;98698.06;;;11.29;44.13
58471;BME280;44258;51.288;12.068;2024-02-23T12:05:15;98700.03;;;11.27;44.72
58471;BME280;44258;51.288;12.068;2024-02-23T12:07:48;98689.53;;;11.45;44.02
58471;BME280;44258;51.288;12.068;2024-02-23T12:10:22;98688.09;;;11.41;44.14
58471;BME280;44258;51.288;12.068;2024-02-23T12:12:48;98677.50;;;11.49;42.96
58471;BME280;44258;51.288;12.068;2024-02-23T12:15:15;98671.63;;;11.34;43.11
58471;BME280;44258;51.288;12.068;2024-02-23T12:17:48;98685.19;;;11.53;43.13
58471;BME280;44258;51.288;12.068;2024-02-23T12:20:17;98682.25;;;11.66;43.30
58471;BME280;44258;51.288;12.068;2024-02-23T12:22:47;98675.44;;;11.62;43.36
58471;BME280;44258;51.288;12.068;2024-02-23T12:25:17;98686.44;;;11.80;43.36
58471;BME280;44258;51.288;12.068;2024-02-23T12:27:44;98679.13;;;11.92;42.66
58471;BME280;44258;51.288;12.068;2024-02-23T12:30:16;98677.34;;;11.71;43.19
58471;BME280;44258;51.288;12.068;2024-02-23T12:32:43;98687.94;;;11.63;43.63
58471;BME280;44258;51.288;12.068;2024-02-23T12:35:21;98697.16;;;11.70;42.96
58471;BME280;44258;51.288;12.068;2024-02-23T12:37:52;98695.41;;;11.60;44.21
58471;BME280;44258;51.288;12.068;2024-02-23T12:40:19;98688.72;;;11.54;43.99
58471;BME280;44258;51.288;12.068;2024-02-23T12:42:48;98692.13;;;11.56;43.75
58471;BME280;44258;51.288;12.068;2024-02-23T12:45:17;98691.25;;;11.77;43.71
58471;BME280;44258;51.288;12.068;2024-02-23T12:47:44;98679.38;;;11.58;43.61
58471;BME280;44258;51.288;12.068;2024-02-23T12:50:18;98691.59;;;11.62;43.73
58471;BME280;44258;51.288;12.068;2024-02-23T12:52:49;98683.13;;;11.67;43.23
58471;BME280;44258;51.288;12.068;2024-02-23T12:55:15;98684.53;;;11.61;43.80
58471;BME280;44258;51.288;12.068;2024-02-23T12:57:42;98686.03;;;11.85;43.09
58471;BME280;44258;51.288;12.068;2024-02-23T13:00:30;98698.59;;;11.95;43.13
58471;BME280;44258;51.288;12.068;2024-02-23T13:02:56;98698.25;;;12.10;42.19
58471;BME280;44258;51.288;12.068;2024-02-23T13:05:24;98694.88;;;11.97;42.81